RCSSRCFN [JADEAIR]

Details From RCSS - Sungshan
To RCFN - Taitung Airport
Flight Number JADEAIR
Tags SIMULATOR
Created
Modified
Stats Distance 166 nm / 307 km
Max Altitude 0 ft / 0 m
Waypoints 8
Social Downloads 7
Likes 0
Share VATSIM

Download

Looking for another format? Having issues loading an existing format? Contact us
Advertisement - Login to hide

Notes

RCSS SID WADER B591 TACLE GID STAR RCFN

Route

RCSS WADER TINHO TITUS WAGON JICHI TACLE RCFN

ID Type Via Altitude Latitude Longitude Leg Dist Tot Dist Heading (true) Name
O RCSS APT - 0 ft / 0 m 25.06970˚ 121.55250˚ - 0 nm - Sungshan
WADER FIX - 0 ft / 0 m 24.50640˚ 121.93470˚ 39 nm 39 nm 148° / 148° -
TINHO FIX - 0 ft / 0 m 24.35250˚ 122.02860˚ 10 nm 50 nm 151° / 151° -
TITUS FIX - 0 ft / 0 m 23.82830˚ 121.85170˚ 32 nm 83 nm 197° / 197° -
WAGON FIX - 0 ft / 0 m 23.58810˚ 121.77390˚ 15 nm 98 nm 197° / 197° -
JICHI FIX - 0 ft / 0 m 23.41030˚ 121.72250˚ 11 nm 109 nm 195° / 195° -
TACLE FIX - 0 ft / 0 m 22.99390˚ 121.58690˚ 26 nm 135 nm 197° / 197° -
O RCFN APT - 0 ft / 0 m 22.75530˚ 121.10030˚ 30 nm 165 nm 242° / 242° -

Altitude Profile

Advertisement - Login to hide

Weather


0- 5 10 15 20 25 30 35+ Temperature / ° C

Clouds and Precipitation
Forecast for 2017-12-12 12:00 UTC. Updated an hour ago

Ground ~20,000 ft ~40,000 ft Winds

RCSS

Details ICAO RCSS (TSA)
Name Sungshan
Region Republic of China (Taiwan)
Timezone Asia/Taipei (UTC+8.0)
Stats Elevation 18 ft / 5 m (AMSL)
Location 25.069586° 121.552570°
Runways 1
Magnetic Variation 4.480° W

METAR

RCSS 121200Z 09011KT 9999 -RA FEW008 BKN018 BKN040 17/16 Q1020 NOSIG RMK A3014

Decode

TAF

TAF RCSS 121106Z 1212/1312 10012KT 8000 FEW010 BKN032 SCT060 TEMPO 1212/1216 5000 RA SCT008 BKN020 BKN050 TEMPO 1308/1312 5000 RA FEW008 BKN020 BKN050

Decode

Departure Runways

ID Width Length Bearing (true) Bearing (mag) Surface Threshold Offset Overrun Length
10 197 ft / 60 m 8,566 ft / 2,611 m 92.26° 96.74° Asphalt 0 ft / 0 m 197 ft / 60 m
28 197 ft / 60 m 8,566 ft / 2,611 m 272.27° 276.75° Asphalt 0 ft / 0 m 525 ft / 160 m

RCFN

Details ICAO RCFN (TTT)
Name FENGNIN
Region Republic of China (Taiwan)
Timezone Asia/Taipei (UTC+8.0)
Stats Elevation 143 ft / 44 m (AMSL)
Location 22.754872° 121.101650°
Runways 1
Magnetic Variation 3.902° W

METAR

RCFN 121200Z 35007KT 310V030 9999 FEW025 BKN060 OVC080 19/14 Q1020 NOSIG RMK A3012

Decode

TAF

TAF TAF RCFN 121109Z 1212/1312 35005KT 9999 FEW015 BKN032 BKN060 TEMPO 1222/1301 5000 RA FEW012 BKN022 BKN050 BECMG 1301/1303 05010KT TEMPO 1304/1310 06012G22KT 5000 RA FEW012 BKN022 BKN050

Decode

Destination Runways

ID Width Length Bearing (true) Bearing (mag) Surface Threshold Offset Overrun Length
04 148 ft / 45 m 8,019 ft / 2,444 m 38.51° 42.41° Asphalt 0 ft / 0 m 750 ft / 229 m
22 148 ft / 45 m 8,019 ft / 2,444 m 218.52° 222.42° Asphalt 0 ft / 0 m 745 ft / 227 m

Popular Alternatives